GHB - Wetterstation

--- Lilienthal-Gleiter-Unterfranken e.V. --- (Impressum)
-> Windverlauf / Grafik
-> Barometerverlauf / Grafik
-> Wetter Links
-> WS GHB auf Windy



Bitte Uhrzeit beachten ob Daten aktuell sind!

Anzeige der letzten 100 Messwerte (~8 Stunden)
Datum Zeit Wind Richtung Richtung Böen Temperatur Feuchte Luftdruck
15.08.2022 12:28:02 10.96 km/h 212.1 ° S-SW 14.76 km/h 25.8 °C 32.5 % 1006.62 hPa
15.08.2022 12:18:32 10.21 km/h 200.1 ° S-SW 13.68 km/h 28 °C 31.5 % 1006.62 hPa
15.08.2022 12:13:47 5.79 km/h 221.4 ° SW 10.44 km/h 27.7 °C 32 % 1006.52 hPa
15.08.2022 12:09:01 7.4 km/h 208.7 ° S-SW 11.16 km/h 26.8 °C 32.5 % 1006.62 hPa
15.08.2022 12:04:16 8.94 km/h 211.3 ° S-SW 12.6 km/h 25.5 °C 33.5 % 1006.82 hPa
15.08.2022 11:59:32 8.18 km/h 192.8 ° S-SW 9.72 km/h 23.7 °C 34 % 1006.82 hPa
15.08.2022 11:52:10 5.33 km/h 232.5 ° SW 10.44 km/h 22.8 °C 33 % 1006.82 hPa
15.08.2022 11:47:26 7.54 km/h 199.7 ° S-SW 11.88 km/h 22.3 °C 34 % 1006.92 hPa
15.08.2022 11:42:42 9.77 km/h 209.6 ° S-SW 11.88 km/h 21.9 °C 34.5 % 1006.82 hPa
15.08.2022 11:37:58 9.48 km/h 211.9 ° S-SW 12.24 km/h 21.6 °C 34.5 % 1006.92 hPa
15.08.2022 11:33:14 10 km/h 205.8 ° S-SW 13.68 km/h 21.3 °C 35 % 1007.02 hPa
15.08.2022 11:28:29 14.22 km/h 225.8 ° SW 17.64 km/h 21.1 °C 35 % 1006.92 hPa
15.08.2022 11:23:46 16.32 km/h 226.4 ° SW 21.96 km/h 21.1 °C 34.5 % 1006.82 hPa
15.08.2022 11:19:02 13.57 km/h 205 ° S-SW 16.56 km/h 21.1 °C 34.5 % 1006.82 hPa
15.08.2022 11:14:18 12.76 km/h 208.7 ° S-SW 18 km/h 21.1 °C 35 % 1006.82 hPa
15.08.2022 11:09:34 13.36 km/h 220.3 ° SW 18.36 km/h 21.1 °C 34.5 % 1006.72 hPa
15.08.2022 11:04:50 10.62 km/h 227.5 ° SW 14.04 km/h 21.1 °C 34.5 % 1006.72 hPa
15.08.2022 11:00:06 13.68 km/h 216.5 ° SW 18.72 km/h 21.3 °C 34.5 % 1006.72 hPa
15.08.2022 10:55:22 15.33 km/h 223 ° SW 20.16 km/h 21.6 °C 34 % 1006.62 hPa
15.08.2022 10:50:38 16.56 km/h 204.1 ° S-SW 20.16 km/h 22 °C 34 % 1006.52 hPa
15.08.2022 10:45:54 12.77 km/h 219.1 ° SW 17.28 km/h 22.6 °C 33.5 % 1006.42 hPa
15.08.2022 10:41:10 11.38 km/h 220.5 ° SW 16.92 km/h 23.2 °C 33 % 1006.32 hPa
15.08.2022 10:36:26 6.57 km/h 208.5 ° S-SW 9.36 km/h 23.6 °C 33 % 1006.42 hPa
15.08.2022 10:31:41 7.92 km/h 193.4 ° S-SW 9.72 km/h 24 °C 33 % 1006.42 hPa
15.08.2022 10:26:57 9.15 km/h 175.3 ° S 13.68 km/h 24.3 °C 32.5 % 1006.32 hPa
15.08.2022 10:22:12 9 km/h 181 ° S 12.6 km/h 24.5 °C 32.5 % 1006.32 hPa
15.08.2022 10:17:27 6.85 km/h 189.6 ° S 10.08 km/h 23.3 °C 33.5 % 1006.32 hPa
15.08.2022 10:06:43 9.04 km/h 183.7 ° S 12.24 km/h 21.6 °C 34.5 % 1006.32 hPa
15.08.2022 10:01:59 8.07 km/h 175.5 ° S 10.44 km/h 21.4 °C 34.5 % 1006.32 hPa
15.08.2022 09:57:15 7.01 km/h 173 ° S 8.64 km/h 21.2 °C 34 % 1006.32 hPa
15.08.2022 09:52:31 7.2 km/h 178.3 ° S 9.36 km/h 21 °C 34 % 1006.22 hPa
15.08.2022 09:47:46 4.65 km/h 179.7 ° S 7.56 km/h 20.8 °C 34.5 % 1006.22 hPa
15.08.2022 09:43:02 3.11 km/h 192.8 ° S-SW 4.32 km/h 20.5 °C 34 % 1006.22 hPa
15.08.2022 09:38:18 2.97 km/h 217.6 ° SW 7.2 km/h 20.3 °C 34.5 % 1006.12 hPa
15.08.2022 09:33:34 7.45 km/h 197.8 ° S-SW 9.72 km/h 20.3 °C 34 % 1006.12 hPa
15.08.2022 09:28:50 7.43 km/h 214.6 ° SW 10.08 km/h 20.3 °C 34 % 1006.12 hPa
15.08.2022 09:24:05 5.67 km/h 188.3 ° S 9.72 km/h 20.4 °C 34 % 1006.22 hPa
15.08.2022 09:11:46 2.83 km/h 186.7 ° S 4.68 km/h 20.6 °C 34 % 1006.22 hPa
15.08.2022 09:07:02 2.19 km/h 181.4 ° S 3.96 km/h 20.7 °C 34 % 1006.22 hPa
15.08.2022 09:02:18 1.09 km/h 159.1 ° S-SO 3.24 km/h 20.6 °C 33.5 % 1006.12 hPa
15.08.2022 08:57:34 1.69 km/h 193.4 ° S-SW 3.24 km/h 20.5 °C 34 % 1006.22 hPa
15.08.2022 08:52:50 1.09 km/h 157.2 ° S-SO 2.88 km/h 20.4 °C 34 % 1006.12 hPa
15.08.2022 08:48:06 1.67 km/h 149.9 ° S-SO 3.6 km/h 20.3 °C 34 % 1006.12 hPa
15.08.2022 08:43:22 3.93 km/h 170.9 ° S 6.48 km/h 20.1 °C 34.5 % 1006.22 hPa
15.08.2022 08:38:38 2.02 km/h 193.2 ° S-SW 5.04 km/h 19.9 °C 34 % 1006.12 hPa
15.08.2022 08:33:54 3.75 km/h 188.8 ° S 6.12 km/h 19.7 °C 34 % 1006.12 hPa
15.08.2022 08:29:10 6.1 km/h 199.1 ° S-SW 7.56 km/h 19.5 °C 34 % 1006.22 hPa
15.08.2022 08:24:26 5.07 km/h 216.7 ° SW 7.2 km/h 19.4 °C 34.5 % 1006.22 hPa
15.08.2022 08:19:42 3.72 km/h 201.6 ° S-SW 5.4 km/h 19.2 °C 34 % 1006.22 hPa
15.08.2022 08:14:58 5.31 km/h 206.8 ° S-SW 7.2 km/h 19.1 °C 34 % 1006.12 hPa
15.08.2022 08:10:15 4.99 km/h 214.4 ° SW 7.56 km/h 18.9 °C 34.5 % 1006.12 hPa
15.08.2022 08:05:31 3.5 km/h 221.2 ° SW 5.04 km/h 18.7 °C 34.5 % 1006.12 hPa
15.08.2022 08:00:47 5.54 km/h 227.5 ° SW 7.2 km/h 18.6 °C 34.5 % 1006.12 hPa
15.08.2022 07:56:03 1.04 km/h 217.8 ° SW 5.76 km/h 18.4 °C 34.5 % 1006.02 hPa
15.08.2022 07:51:19 0 km/h 193.6 ° S-SW 0 km/h 18.3 °C 34.5 % 1006.12 hPa
15.08.2022 07:46:35 1.03 km/h 227.3 ° SW 2.88 km/h 18.3 °C 34.5 % 1006.02 hPa
15.08.2022 07:41:51 0.83 km/h 265.7 ° W 2.16 km/h 18.1 °C 34 % 1006.02 hPa
15.08.2022 07:37:08 0.23 km/h 244.3 ° W-SW 0.72 km/h 18 °C 34.5 % 1006.02 hPa
15.08.2022 07:32:24 0.47 km/h 252.7 ° W-SW 1.08 km/h 18 °C 34.5 % 1006.02 hPa
15.08.2022 07:27:40 1.68 km/h 283.8 ° W-NW 3.6 km/h 17.8 °C 34.5 % 1006.02 hPa
15.08.2022 07:22:57 0 km/h 290.8 ° W-NW 0 km/h 17.7 °C 34.5 % 1006.02 hPa
15.08.2022 07:18:13 0.32 km/h 291.2 ° W-NW 1.44 km/h 17.7 °C 34.5 % 1005.92 hPa
15.08.2022 07:13:30 0 km/h 218.8 ° SW 0 km/h 17.6 °C 34.5 % 1005.92 hPa
15.08.2022 07:08:46 0 km/h 174.9 ° S 0 km/h 17.7 °C 34.5 % 1006.02 hPa
15.08.2022 07:04:03 0.29 km/h 146.9 ° S-SO 2.88 km/h 17.7 °C 34 % 1006.12 hPa
15.08.2022 06:59:19 0.59 km/h 134.1 ° SO 3.6 km/h 17.9 °C 34 % 1006.12 hPa
15.08.2022 06:54:36 0.34 km/h 162.3 ° S-SO 5.04 km/h 18.1 °C 34 % 1006.12 hPa
15.08.2022 06:49:52 2.17 km/h 159.5 ° S-SO 7.2 km/h 18.3 °C 34 % 1006.12 hPa
15.08.2022 06:45:09 0.86 km/h 155.8 ° S-SO 3.6 km/h 18.6 °C 34 % 1006.02 hPa
15.08.2022 06:40:25 2.24 km/h 188.6 ° S 3.6 km/h 18.8 °C 33 % 1005.92 hPa
15.08.2022 06:35:41 0.11 km/h 218 ° SW 0.72 km/h 18.9 °C 34 % 1005.82 hPa
15.08.2022 06:30:57 1.29 km/h 209.2 ° S-SW 3.96 km/h 19.1 °C 33.5 % 1005.72 hPa
15.08.2022 06:26:13 0.73 km/h 279.6 ° W 2.88 km/h 19.2 °C 33.5 % 1005.52 hPa
15.08.2022 06:21:29 2.86 km/h 252.9 ° W-SW 6.12 km/h 19.3 °C 33.5 % 1005.42 hPa
15.08.2022 06:16:45 1.11 km/h 281.9 ° W-NW 4.68 km/h 19.4 °C 33 % 1005.32 hPa
15.08.2022 06:12:02 4.2 km/h 309.5 ° NW 8.28 km/h 19.5 °C 33.5 % 1005.32 hPa
15.08.2022 06:07:18 4.9 km/h 283.8 ° W-NW 9 km/h 19.6 °C 33.5 % 1005.32 hPa
15.08.2022 06:02:34 8.64 km/h 281.9 ° W-NW 13.68 km/h 19.6 °C 33 % 1005.32 hPa
15.08.2022 05:57:50 8.7 km/h 295.6 ° W-NW 13.32 km/h 19.6 °C 33 % 1005.42 hPa
15.08.2022 05:53:06 4.08 km/h 286.3 ° W-NW 14.04 km/h 19.7 °C 33 % 1005.32 hPa
15.08.2022 05:48:22 3.11 km/h 273.1 ° W 6.84 km/h 19.9 °C 33 % 1005.52 hPa
15.08.2022 05:43:38 7.4 km/h 292.2 ° W-NW 15.84 km/h 20.1 °C 33 % 1005.42 hPa
15.08.2022 05:38:54 3.42 km/h 303.4 ° W-NW 7.2 km/h 20.1 °C 33 % 1005.32 hPa
15.08.2022 05:34:10 2.5 km/h 279.8 ° W 3.6 km/h 20.2 °C 32.5 % 1005.42 hPa
15.08.2022 05:29:26 5.5 km/h 218.8 ° SW 12.6 km/h 20.2 °C 33 % 1005.52 hPa
15.08.2022 05:24:42 8.02 km/h 253.7 ° W-SW 10.44 km/h 20.1 °C 33 % 1005.52 hPa
15.08.2022 05:19:58 6.54 km/h 243.2 ° W-SW 9.72 km/h 20.1 °C 33 % 1005.52 hPa
15.08.2022 05:15:14 6.18 km/h 207.7 ° S-SW 9 km/h 20.1 °C 33 % 1005.42 hPa
15.08.2022 05:10:30 4.81 km/h 235.4 ° SW 7.92 km/h 20 °C 33 % 1005.42 hPa
15.08.2022 05:05:46 0.36 km/h 257.7 ° W-SW 2.16 km/h 20 °C 33 % 1005.42 hPa
15.08.2022 05:01:02 0 km/h 153 ° S-SO 0 km/h 20.1 °C 32.5 % 1005.42 hPa
15.08.2022 04:56:19 0.12 km/h 156.8 ° S-SO 1.08 km/h 20.2 °C 32.5 % 1005.52 hPa
15.08.2022 04:51:35 2 km/h 216.1 ° SW 6.12 km/h 20.3 °C 33 % 1005.52 hPa
15.08.2022 04:46:51 3.38 km/h 224.9 ° SW 8.64 km/h 20.3 °C 32.5 % 1005.52 hPa
15.08.2022 04:42:07 4.54 km/h 233.3 ° SW 8.64 km/h 20.2 °C 32.5 % 1005.42 hPa
15.08.2022 04:37:23 1.42 km/h 254.4 ° W-SW 3.96 km/h 20.1 °C 33 % 1005.52 hPa
15.08.2022 04:32:39 2.69 km/h 231.7 ° SW 6.48 km/h 20.1 °C 33 % 1005.62 hPa
15.08.2022 04:27:55 0.54 km/h 191.1 ° S 5.04 km/h 20 °C 33.5 % 1005.52 hPa
15.08.2022 04:23:11 0.51 km/h 208.3 ° S-SW 5.04 km/h 20.1 °C 33 % 1005.52 hPa
15.08.2022 04:18:27 0 km/h 153 ° S-SO 0 km/h 20.1 °C 33 % 1005.62 hPa